createdAt,value
2023-01-11T00:02:05.967Z,72.60
2023-01-11T00:07:09.477Z,72.40
2023-01-11T00:12:14.228Z,72.40
2023-01-11T00:17:19.147Z,72.30
2023-01-11T00:22:22.826Z,72.20
2023-01-11T00:27:26.240Z,72.00
2023-01-11T00:32:30.940Z,71.60
2023-01-11T00:37:36.197Z,72.00
2023-01-11T00:42:57.091Z,71.50
2023-01-11T00:48:02.409Z,71.40
2023-01-11T00:53:06.725Z,70.70
2023-01-11T00:58:10.338Z,70.40
2023-01-11T01:03:15.111Z,71.30
2023-01-11T01:08:18.602Z,70.20
2023-01-11T01:13:39.260Z,69.60
2023-01-11T01:18:44.562Z,69.30
2023-01-11T01:23:47.966Z,69.00
2023-01-11T01:28:51.461Z,69.00
2023-01-11T01:33:57.168Z,69.00
2023-01-11T01:39:01.483Z,68.80
2023-01-11T01:44:26.451Z,68.40
2023-01-11T01:49:32.011Z,68.30
2023-01-11T01:54:40.731Z,68.30
2023-01-11T01:59:44.298Z,68.50
2023-01-11T02:04:50.036Z,68.30
2023-01-11T02:09:59.094Z,68.40
2023-01-11T02:15:03.486Z,68.20
2023-01-11T02:20:36.268Z,67.60
2023-01-11T02:26:15.576Z,67.40
2023-01-11T02:31:29.997Z,67.50
2023-01-11T02:36:40.333Z,67.50
2023-01-11T02:42:06.388Z,67.40
2023-01-11T02:47:18.375Z,67.60
2023-01-11T02:52:27.896Z,67.60
2023-01-11T02:57:34.302Z,67.70
2023-01-11T03:02:39.348Z,67.80
2023-01-11T03:07:58.280Z,67.80
2023-01-11T03:13:14.425Z,67.90
2023-01-11T03:18:38.359Z,67.80
2023-01-11T03:23:49.899Z,67.80
2023-01-11T03:28:59.188Z,67.90
2023-01-11T03:34:14.146Z,67.80
2023-01-11T03:39:25.119Z,69.00
2023-01-11T03:44:32.129Z,68.20
2023-01-11T03:49:41.463Z,68.40
2023-01-11T03:54:45.720Z,68.50
2023-01-11T03:59:50.516Z,68.40
2023-01-11T04:04:55.478Z,68.60
2023-01-11T04:09:59.736Z,69.70
2023-01-11T04:15:05.163Z,68.80
2023-01-11T04:20:12.151Z,69.00
2023-01-11T04:25:15.678Z,68.90
2023-01-11T04:30:19.435Z,68.80
2023-01-11T04:35:24.381Z,68.80
2023-01-11T04:40:28.057Z,68.70
2023-01-11T04:45:31.835Z,68.70
2023-01-11T04:50:36.676Z,68.50
2023-01-11T04:55:40.664Z,68.70
2023-01-11T05:00:44.505Z,68.50
2023-01-11T05:05:57.237Z,68.50
2023-01-11T05:11:02.309Z,68.60
2023-01-11T05:16:06.425Z,68.60
2023-01-11T05:21:12.883Z,68.60
2023-01-11T05:26:18.659Z,68.40
2023-01-11T05:31:22.326Z,68.50
2023-01-11T05:36:29.035Z,68.40
2023-01-11T05:41:32.938Z,68.50
2023-01-11T05:46:38.833Z,68.60
2023-01-11T05:51:44.103Z,68.60
2023-01-11T05:56:47.502Z,68.30
2023-01-11T06:01:51.209Z,68.30
2023-01-11T06:06:56.138Z,68.30
2023-01-11T06:11:59.594Z,68.20
2023-01-11T06:17:03.211Z,68.10
2023-01-11T06:22:08.066Z,68.20
2023-01-11T06:27:11.488Z,68.20
2023-01-11T06:32:14.872Z,68.20
2023-01-11T06:37:19.865Z,68.10
2023-01-11T06:42:23.282Z,68.10
2023-01-11T06:47:26.985Z,68.20
2023-01-11T06:52:31.774Z,68.10
2023-01-11T06:57:35.158Z,68.20
2023-01-11T07:02:38.520Z,68.20
2023-01-11T07:07:44.473Z,67.90
2023-01-11T07:12:48.160Z,67.70
2023-01-11T07:17:55.675Z,67.50
2023-01-11T07:23:01.661Z,67.30
2023-01-11T07:28:07.984Z,67.20
2023-01-11T07:33:11.845Z,67.00
2023-01-11T07:38:16.646Z,66.90
2023-01-11T07:43:23.183Z,66.90
2023-01-11T07:48:27.467Z,66.70
2023-01-11T07:53:32.289Z,66.70
2023-01-11T07:58:35.662Z,66.60
2023-01-11T08:03:39.479Z,66.50
2023-01-11T08:08:44.431Z,67.70
2023-01-11T08:14:05.617Z,66.50
2023-01-11T08:19:09.008Z,66.40
2023-01-11T08:24:13.937Z,66.30
2023-01-11T08:29:17.340Z,66.20
2023-01-11T08:34:20.750Z,66.10
2023-01-11T08:39:28.314Z,66.10
2023-01-11T08:44:35.196Z,66.00
2023-01-11T08:49:39.196Z,65.70
2023-01-11T08:54:44.084Z,65.50
2023-01-11T08:59:47.477Z,65.50
2023-01-11T09:04:51.038Z,65.40
2023-01-11T09:09:55.817Z,65.30
2023-01-11T09:14:59.837Z,65.40
2023-01-11T09:20:03.771Z,65.50
2023-01-11T09:25:10.160Z,65.40
2023-01-11T09:30:16.833Z,65.30
2023-01-11T09:35:20.746Z,65.30
2023-01-11T09:40:38.614Z,65.30
2023-01-11T09:45:46.759Z,65.40
2023-01-11T09:50:50.454Z,65.40
2023-01-11T09:55:58.154Z,65.40
2023-01-11T10:01:08.468Z,65.50
2023-01-11T10:06:18.568Z,65.50
2023-01-11T10:18:26.026Z,65.90
2023-01-11T10:22:36.492Z,66.00
2023-01-11T10:27:49.048Z,66.10
2023-01-11T10:33:10.177Z,66.20
2023-01-11T10:38:40.880Z,66.20
2023-01-11T10:43:50.498Z,66.30
2023-01-11T10:49:03.748Z,66.20
2023-01-11T10:54:18.061Z,66.30
2023-01-11T10:59:43.675Z,66.30
2023-01-11T11:05:01.650Z,65.80
2023-01-11T11:10:11.175Z,64.30
2023-01-11T11:15:21.853Z,63.40
2023-01-11T11:20:29.685Z,62.80
2023-01-11T11:25:37.447Z,62.20
2023-01-11T11:30:45.005Z,61.80
2023-01-11T11:35:57.714Z,61.50
2023-01-11T11:41:07.874Z,61.00
2023-01-11T11:46:27.550Z,61.20
2023-01-11T11:51:31.247Z,61.50
2023-01-11T11:56:37.726Z,61.60
2023-01-11T12:01:47.174Z,61.60
2023-01-11T12:07:05.932Z,61.60
2023-01-11T12:12:17.426Z,61.60
2023-01-11T12:17:25.829Z,61.90
2023-01-11T12:22:30.227Z,61.70
2023-01-11T12:27:42.852Z,61.80
2023-01-11T12:33:20.951Z,62.10
2023-01-11T12:38:40.905Z,62.00
2023-01-11T12:43:56.277Z,61.90
2023-01-11T12:49:18.602Z,61.50
2023-01-11T12:54:48.416Z,61.60
2023-01-11T13:00:11.063Z,61.30
2023-01-11T13:05:24.593Z,61.50
2023-01-11T13:10:37.804Z,61.40
2023-01-11T13:15:49.393Z,61.50
2023-01-11T13:21:02.152Z,61.40
2023-01-11T13:26:17.236Z,61.30
2023-01-11T13:31:21.286Z,61.10
2023-01-11T13:36:31.382Z,61.40
2023-01-11T13:41:42.513Z,61.40
2023-01-11T13:46:58.827Z,61.50
2023-01-11T13:52:09.486Z,61.50
2023-01-11T13:57:21.230Z,61.40
2023-01-11T14:02:35.165Z,61.70
2023-01-11T14:07:56.019Z,61.70
2023-01-11T14:13:38.900Z,62.00
2023-01-11T14:18:49.241Z,62.20
2023-01-11T14:23:55.930Z,62.40
2023-01-11T14:29:15.620Z,62.80
2023-01-11T14:34:48.546Z,63.00
2023-01-11T14:40:21.929Z,63.20
2023-01-11T14:45:41.875Z,63.30
2023-01-11T14:50:59.193Z,63.40
2023-01-11T14:56:03.969Z,63.50
2023-01-11T15:01:11.953Z,63.70
2023-01-11T15:06:18.843Z,63.80
2023-01-11T15:11:39.095Z,64.10
2023-01-11T15:17:08.280Z,64.40
2023-01-11T15:22:29.253Z,64.80
2023-01-11T15:27:36.827Z,65.00
2023-01-11T15:32:41.485Z,66.40
2023-01-11T15:37:57.790Z,65.70
2023-01-11T15:43:33.465Z,65.90
2023-01-11T15:48:52.466Z,66.00
2023-01-11T15:54:19.763Z,66.10
2023-01-11T16:00:00.864Z,66.30
2023-01-11T16:05:17.037Z,66.60
2023-01-11T16:10:36.831Z,67.00
2023-01-11T16:15:52.289Z,67.00
2023-01-11T16:21:04.629Z,67.40
2023-01-11T16:26:08.672Z,67.40
2023-01-11T16:31:12.387Z,67.70
2023-01-11T16:36:21.142Z,68.00
2023-01-11T16:41:27.065Z,68.20
2023-01-11T16:47:07.161Z,68.50
2023-01-11T16:52:48.234Z,68.80
2023-01-11T16:57:55.405Z,68.90
2023-01-11T17:03:06.702Z,69.30
2023-01-11T17:14:08.553Z,69.50
2023-01-11T17:19:17.645Z,69.40
2023-01-11T17:24:24.918Z,69.20
2023-01-11T17:29:32.627Z,69.10
2023-01-11T17:34:38.261Z,69.00
2023-01-11T17:39:47.550Z,68.90
2023-01-11T17:45:11.538Z,69.00
2023-01-11T17:50:22.902Z,69.20
2023-01-11T17:55:28.600Z,69.30
2023-01-11T18:00:34.061Z,69.40
2023-01-11T18:05:38.672Z,69.60
2023-01-11T18:10:53.965Z,69.60
2023-01-11T18:16:00.440Z,69.50
2023-01-11T18:21:03.878Z,69.30
2023-01-11T18:26:27.631Z,69.40
2023-01-11T18:31:32.800Z,69.50
2023-01-11T18:36:36.285Z,69.40
2023-01-11T18:41:58.150Z,69.30
2023-01-11T18:47:03.386Z,69.30
2023-01-11T18:52:06.845Z,69.30
2023-01-11T18:57:10.558Z,69.30
2023-01-11T19:02:25.317Z,70.20
2023-01-11T19:07:29.152Z,69.30
2023-01-11T19:12:32.624Z,69.20
2023-01-11T19:17:37.954Z,69.20
2023-01-11T19:22:42.208Z,69.20
2023-01-11T19:27:45.756Z,69.30
2023-01-11T19:32:53.594Z,69.30
2023-01-11T19:37:57.633Z,69.40
2023-01-11T19:43:01.230Z,69.50
2023-01-11T19:48:06.832Z,69.60
2023-01-11T19:53:10.487Z,70.60
2023-01-11T19:58:13.938Z,69.80
2023-01-11T20:03:18.715Z,69.90
2023-01-11T20:08:22.528Z,71.00
2023-01-11T20:13:26.306Z,70.20
2023-01-11T20:18:31.129Z,70.60
2023-01-11T20:23:36.669Z,70.90
2023-01-11T20:28:40.734Z,71.30
2023-01-11T20:34:04.394Z,72.60
2023-01-11T20:39:08.509Z,71.90
2023-01-11T20:44:12.911Z,72.20
2023-01-11T20:49:18.564Z,72.40
2023-01-11T20:54:22.223Z,72.70
2023-01-11T20:59:25.748Z,73.10
2023-01-11T21:04:31.314Z,73.30
2023-01-11T21:09:36.637Z,73.70
2023-01-11T21:14:40.211Z,73.90
2023-01-11T21:19:45.068Z,74.20
2023-01-11T21:24:48.768Z,74.80
2023-01-11T21:29:52.468Z,75.00
2023-01-11T21:34:57.284Z,75.10
2023-01-11T21:40:00.760Z,75.30
2023-01-11T21:45:08.707Z,75.50
2023-01-11T21:50:13.992Z,75.70
2023-01-11T21:55:17.887Z,76.00
2023-01-11T22:00:22.028Z,76.10
2023-01-11T22:05:26.857Z,76.10
2023-01-11T22:10:30.992Z,76.10
2023-01-11T22:15:34.651Z,76.10
2023-01-11T22:20:40.775Z,76.20
2023-01-11T22:25:44.310Z,76.10
2023-01-11T22:30:47.934Z,76.00
2023-01-11T22:35:56.652Z,76.00
2023-01-11T22:41:01.173Z,76.10
2023-01-11T22:46:04.745Z,76.10
2023-01-11T22:51:10.845Z,76.10
2023-01-11T22:56:18.651Z,76.30
2023-01-11T23:01:23.654Z,76.50
2023-01-11T23:06:30.685Z,76.70
2023-01-11T23:11:56.407Z,76.70
2023-01-11T23:17:01.390Z,76.60
2023-01-11T23:22:06.807Z,76.60
2023-01-11T23:27:10.595Z,76.70
2023-01-11T23:32:14.677Z,76.60
2023-01-11T23:37:19.422Z,76.70
2023-01-11T23:42:28.849Z,76.70
2023-01-11T23:47:32.604Z,76.70
2023-01-11T23:52:37.346Z,76.70
2023-01-11T23:58:01.308Z,76.70
